sensor_id;sensor_type;location;lat;lon;timestamp;P1;durP1;ratioP1;P2;durP2;ratioP2
18378;SDS011;27025;51.986;5.984;2023-07-20T00:01:25;11.80;;;6.90;;
18378;SDS011;27025;51.986;5.984;2023-07-20T00:03:51;9.17;;;7.33;;
18378;SDS011;27025;51.986;5.984;2023-07-20T00:06:23;7.93;;;7.10;;
18378;SDS011;27025;51.986;5.984;2023-07-20T00:08:50;8.93;;;6.93;;
18378;SDS011;27025;51.986;5.984;2023-07-20T00:11:16;8.37;;;6.50;;
18378;SDS011;27025;51.986;5.984;2023-07-20T00:13:42;9.60;;;6.57;;
18378;SDS011;27025;51.986;5.984;2023-07-20T00:16:08;10.63;;;7.00;;
18378;SDS011;27025;51.986;5.984;2023-07-20T00:18:34;9.40;;;6.37;;
18378;SDS011;27025;51.986;5.984;2023-07-20T00:21:01;8.80;;;5.97;;
18378;SDS011;27025;51.986;5.984;2023-07-20T00:23:27;10.53;;;6.17;;
18378;SDS011;27025;51.986;5.984;2023-07-20T00:25:53;9.20;;;6.07;;
18378;SDS011;27025;51.986;5.984;2023-07-20T00:28:19;8.57;;;6.27;;
18378;SDS011;27025;51.986;5.984;2023-07-20T00:30:45;7.33;;;5.70;;
18378;SDS011;27025;51.986;5.984;2023-07-20T00:33:11;8.17;;;5.77;;
18378;SDS011;27025;51.986;5.984;2023-07-20T00:35:38;7.07;;;5.47;;
18378;SDS011;27025;51.986;5.984;2023-07-20T00:38:04;7.47;;;6.13;;
18378;SDS011;27025;51.986;5.984;2023-07-20T00:40:40;9.63;;;5.70;;
18378;SDS011;27025;51.986;5.984;2023-07-20T00:43:06;7.20;;;5.80;;
18378;SDS011;27025;51.986;5.984;2023-07-20T00:45:33;7.73;;;5.20;;
18378;SDS011;27025;51.986;5.984;2023-07-20T00:48:00;6.90;;;5.63;;
18378;SDS011;27025;51.986;5.984;2023-07-20T00:50:27;8.23;;;5.60;;
18378;SDS011;27025;51.986;5.984;2023-07-20T00:52:57;7.97;;;5.33;;
18378;SDS011;27025;51.986;5.984;2023-07-20T00:55:23;6.73;;;5.33;;
18378;SDS011;27025;51.986;5.984;2023-07-20T00:57:50;5.87;;;5.27;;
18378;SDS011;27025;51.986;5.984;2023-07-20T01:00:16;7.70;;;5.57;;
18378;SDS011;27025;51.986;5.984;2023-07-20T01:02:43;8.03;;;5.20;;
18378;SDS011;27025;51.986;5.984;2023-07-20T01:05:09;8.67;;;5.63;;
18378;SDS011;27025;51.986;5.984;2023-07-20T01:07:55;6.87;;;4.93;;
18378;SDS011;27025;51.986;5.984;2023-07-20T01:12:53;8.67;;;5.33;;
18378;SDS011;27025;51.986;5.984;2023-07-20T01:15:19;6.67;;;5.10;;
18378;SDS011;27025;51.986;5.984;2023-07-20T01:17:45;5.97;;;5.37;;
18378;SDS011;27025;51.986;5.984;2023-07-20T01:20:15;7.67;;;5.63;;
18378;SDS011;27025;51.986;5.984;2023-07-20T01:33:06;7.67;;;5.70;;
18378;SDS011;27025;51.986;5.984;2023-07-20T01:35:33;5.97;;;5.33;;
18378;SDS011;27025;51.986;5.984;2023-07-20T01:38:00;5.30;;;4.80;;
18378;SDS011;27025;51.986;5.984;2023-07-20T01:40:26;6.10;;;5.17;;
18378;SDS011;27025;51.986;5.984;2023-07-20T01:42:52;7.17;;;5.20;;
18378;SDS011;27025;51.986;5.984;2023-07-20T01:45:19;7.03;;;5.10;;
18378;SDS011;27025;51.986;5.984;2023-07-20T01:47:45;5.43;;;4.90;;
18378;SDS011;27025;51.986;5.984;2023-07-20T01:50:11;5.83;;;4.50;;
18378;SDS011;27025;51.986;5.984;2023-07-20T01:52:37;5.67;;;4.40;;
18378;SDS011;27025;51.986;5.984;2023-07-20T01:55:03;6.63;;;4.53;;
18378;SDS011;27025;51.986;5.984;2023-07-20T01:57:29;8.07;;;4.40;;
18378;SDS011;27025;51.986;5.984;2023-07-20T01:59:55;4.73;;;4.23;;
18378;SDS011;27025;51.986;5.984;2023-07-20T02:02:23;5.13;;;3.87;;
18378;SDS011;27025;51.986;5.984;2023-07-20T02:04:50;4.83;;;4.00;;
18378;SDS011;27025;51.986;5.984;2023-07-20T02:07:16;6.07;;;3.90;;
18378;SDS011;27025;51.986;5.984;2023-07-20T02:09:42;3.93;;;3.40;;
18378;SDS011;27025;51.986;5.984;2023-07-20T02:12:08;5.67;;;3.60;;
18378;SDS011;27025;51.986;5.984;2023-07-20T02:14:34;3.83;;;3.30;;
18378;SDS011;27025;51.986;5.984;2023-07-20T02:17:00;3.43;;;2.90;;
18378;SDS011;27025;51.986;5.984;2023-07-20T02:19:26;3.57;;;3.10;;
18378;SDS011;27025;51.986;5.984;2023-07-20T02:21:52;4.23;;;2.60;;
18378;SDS011;27025;51.986;5.984;2023-07-20T02:24:18;2.73;;;2.53;;
18378;SDS011;27025;51.986;5.984;2023-07-20T02:26:44;3.20;;;2.90;;
18378;SDS011;27025;51.986;5.984;2023-07-20T02:29:10;3.60;;;2.67;;
18378;SDS011;27025;51.986;5.984;2023-07-20T02:31:39;2.87;;;2.60;;
18378;SDS011;27025;51.986;5.984;2023-07-20T02:34:05;3.37;;;2.70;;
18378;SDS011;27025;51.986;5.984;2023-07-20T02:36:32;3.43;;;2.87;;
18378;SDS011;27025;51.986;5.984;2023-07-20T02:38:58;3.57;;;2.83;;
18378;SDS011;27025;51.986;5.984;2023-07-20T02:41:25;2.87;;;2.50;;
18378;SDS011;27025;51.986;5.984;2023-07-20T02:43:51;2.80;;;2.40;;
18378;SDS011;27025;51.986;5.984;2023-07-20T02:46:17;2.97;;;2.40;;
18378;SDS011;27025;51.986;5.984;2023-07-20T02:48:43;4.63;;;2.70;;
18378;SDS011;27025;51.986;5.984;2023-07-20T02:51:09;3.63;;;2.13;;
18378;SDS011;27025;51.986;5.984;2023-07-20T02:53:37;4.50;;;2.40;;
18378;SDS011;27025;51.986;5.984;2023-07-20T02:56:03;2.80;;;2.27;;
18378;SDS011;27025;51.986;5.984;2023-07-20T02:58:29;2.03;;;1.93;;
18378;SDS011;27025;51.986;5.984;2023-07-20T03:00:55;4.00;;;2.60;;
18378;SDS011;27025;51.986;5.984;2023-07-20T03:03:21;2.87;;;2.50;;
18378;SDS011;27025;51.986;5.984;2023-07-20T03:05:47;3.97;;;2.43;;
18378;SDS011;27025;51.986;5.984;2023-07-20T03:08:19;3.70;;;2.40;;
18378;SDS011;27025;51.986;5.984;2023-07-20T03:10:45;2.87;;;2.57;;
18378;SDS011;27025;51.986;5.984;2023-07-20T03:13:11;2.83;;;2.50;;
18378;SDS011;27025;51.986;5.984;2023-07-20T03:15:39;2.93;;;2.60;;
18378;SDS011;27025;51.986;5.984;2023-07-20T03:18:05;3.67;;;2.03;;
18378;SDS011;27025;51.986;5.984;2023-07-20T03:20:31;2.30;;;2.10;;
18378;SDS011;27025;51.986;5.984;2023-07-20T03:22:57;3.03;;;2.27;;
18378;SDS011;27025;51.986;5.984;2023-07-20T03:25:23;2.57;;;2.20;;
18378;SDS011;27025;51.986;5.984;2023-07-20T03:27:49;2.30;;;1.93;;
18378;SDS011;27025;51.986;5.984;2023-07-20T03:30:15;2.40;;;2.20;;
18378;SDS011;27025;51.986;5.984;2023-07-20T03:32:41;3.30;;;2.30;;
18378;SDS011;27025;51.986;5.984;2023-07-20T03:35:07;2.60;;;2.20;;
18378;SDS011;27025;51.986;5.984;2023-07-20T03:37:34;2.57;;;2.33;;
18378;SDS011;27025;51.986;5.984;2023-07-20T03:40:02;4.23;;;2.50;;
18378;SDS011;27025;51.986;5.984;2023-07-20T03:42:28;3.03;;;2.13;;
18378;SDS011;27025;51.986;5.984;2023-07-20T03:44:54;2.40;;;2.20;;
18378;SDS011;27025;51.986;5.984;2023-07-20T03:47:20;4.47;;;2.37;;
18378;SDS011;27025;51.986;5.984;2023-07-20T03:49:46;3.07;;;2.30;;
18378;SDS011;27025;51.986;5.984;2023-07-20T03:52:12;2.60;;;2.40;;
18378;SDS011;27025;51.986;5.984;2023-07-20T03:54:38;3.47;;;2.33;;
18378;SDS011;27025;51.986;5.984;2023-07-20T03:57:04;2.60;;;2.40;;
18378;SDS011;27025;51.986;5.984;2023-07-20T03:59:30;4.63;;;2.40;;
18378;SDS011;27025;51.986;5.984;2023-07-20T04:01:56;2.77;;;2.17;;
18378;SDS011;27025;51.986;5.984;2023-07-20T04:04:22;2.57;;;2.37;;
18378;SDS011;27025;51.986;5.984;2023-07-20T04:06:48;4.23;;;2.13;;
18378;SDS011;27025;51.986;5.984;2023-07-20T04:09:14;4.10;;;2.10;;
18378;SDS011;27025;51.986;5.984;2023-07-20T04:11:40;2.57;;;2.37;;
18378;SDS011;27025;51.986;5.984;2023-07-20T04:14:06;2.83;;;2.30;;
18378;SDS011;27025;51.986;5.984;2023-07-20T04:16:32;2.77;;;2.20;;
18378;SDS011;27025;51.986;5.984;2023-07-20T04:18:58;2.30;;;2.10;;
18378;SDS011;27025;51.986;5.984;2023-07-20T04:21:26;3.53;;;2.63;;
18378;SDS011;27025;51.986;5.984;2023-07-20T04:23:52;2.33;;;2.13;;
18378;SDS011;27025;51.986;5.984;2023-07-20T04:26:18;2.83;;;2.17;;
18378;SDS011;27025;51.986;5.984;2023-07-20T04:28:44;2.90;;;2.30;;
18378;SDS011;27025;51.986;5.984;2023-07-20T04:31:12;2.50;;;2.30;;
18378;SDS011;27025;51.986;5.984;2023-07-20T04:33:41;3.07;;;2.30;;
18378;SDS011;27025;51.986;5.984;2023-07-20T04:36:07;2.23;;;2.13;;
18378;SDS011;27025;51.986;5.984;2023-07-20T04:38:34;2.60;;;2.40;;
18378;SDS011;27025;51.986;5.984;2023-07-20T04:41:00;3.17;;;2.40;;
18378;SDS011;27025;51.986;5.984;2023-07-20T04:43:26;3.17;;;2.30;;
18378;SDS011;27025;51.986;5.984;2023-07-20T04:45:53;3.53;;;2.50;;
18378;SDS011;27025;51.986;5.984;2023-07-20T04:48:19;2.67;;;2.40;;
18378;SDS011;27025;51.986;5.984;2023-07-20T04:50:45;3.37;;;2.20;;
18378;SDS011;27025;51.986;5.984;2023-07-20T04:53:12;2.50;;;2.30;;
18378;SDS011;27025;51.986;5.984;2023-07-20T04:55:38;2.40;;;2.20;;
18378;SDS011;27025;51.986;5.984;2023-07-20T04:58:05;4.03;;;2.40;;
18378;SDS011;27025;51.986;5.984;2023-07-20T05:00:32;2.47;;;2.27;;
18378;SDS011;27025;51.986;5.984;2023-07-20T05:02:58;3.43;;;2.50;;
18378;SDS011;27025;51.986;5.984;2023-07-20T05:05:24;2.97;;;2.53;;
18378;SDS011;27025;51.986;5.984;2023-07-20T05:07:50;4.23;;;2.63;;
18378;SDS011;27025;51.986;5.984;2023-07-20T05:10:16;2.80;;;2.27;;
18378;SDS011;27025;51.986;5.984;2023-07-20T05:12:43;2.33;;;2.13;;
18378;SDS011;27025;51.986;5.984;2023-07-20T05:15:09;2.53;;;2.30;;
18378;SDS011;27025;51.986;5.984;2023-07-20T05:17:35;2.13;;;2.00;;
18378;SDS011;27025;51.986;5.984;2023-07-20T05:20:01;3.47;;;2.27;;
18378;SDS011;27025;51.986;5.984;2023-07-20T05:22:29;2.53;;;2.10;;
18378;SDS011;27025;51.986;5.984;2023-07-20T05:24:55;2.20;;;2.00;;
18378;SDS011;27025;51.986;5.984;2023-07-20T05:27:21;3.63;;;2.00;;
18378;SDS011;27025;51.986;5.984;2023-07-20T05:29:47;2.00;;;1.80;;
18378;SDS011;27025;51.986;5.984;2023-07-20T05:32:14;3.20;;;1.70;;
18378;SDS011;27025;51.986;5.984;2023-07-20T05:34:40;2.10;;;1.90;;
18378;SDS011;27025;51.986;5.984;2023-07-20T05:37:06;2.73;;;1.90;;
18378;SDS011;27025;51.986;5.984;2023-07-20T05:39:32;2.43;;;2.23;;
18378;SDS011;27025;51.986;5.984;2023-07-20T05:41:59;2.10;;;1.90;;
18378;SDS011;27025;51.986;5.984;2023-07-20T05:44:25;2.37;;;1.80;;
18378;SDS011;27025;51.986;5.984;2023-07-20T05:46:51;2.13;;;1.93;;
18378;SDS011;27025;51.986;5.984;2023-07-20T05:49:17;2.97;;;1.80;;
18378;SDS011;27025;51.986;5.984;2023-07-20T05:51:43;1.83;;;1.70;;
18378;SDS011;27025;51.986;5.984;2023-07-20T05:54:09;2.20;;;1.80;;
18378;SDS011;27025;51.986;5.984;2023-07-20T05:56:35;2.87;;;2.00;;
18378;SDS011;27025;51.986;5.984;2023-07-20T05:59:01;2.30;;;1.80;;
18378;SDS011;27025;51.986;5.984;2023-07-20T06:01:27;3.17;;;1.70;;
18378;SDS011;27025;51.986;5.984;2023-07-20T06:03:53;2.80;;;1.70;;
18378;SDS011;27025;51.986;5.984;2023-07-20T06:06:19;2.90;;;1.80;;
18378;SDS011;27025;51.986;5.984;2023-07-20T06:08:49;1.83;;;1.53;;
18378;SDS011;27025;51.986;5.984;2023-07-20T06:11:15;2.03;;;1.87;;
18378;SDS011;27025;51.986;5.984;2023-07-20T06:13:41;3.43;;;1.80;;
18378;SDS011;27025;51.986;5.984;2023-07-20T06:16:08;1.50;;;1.40;;
18378;SDS011;27025;51.986;5.984;2023-07-20T06:18:34;2.53;;;1.40;;
18378;SDS011;27025;51.986;5.984;2023-07-20T06:21:00;1.50;;;1.40;;
18378;SDS011;27025;51.986;5.984;2023-07-20T06:23:26;3.03;;;1.60;;
18378;SDS011;27025;51.986;5.984;2023-07-20T06:25:52;1.30;;;1.20;;
18378;SDS011;27025;51.986;5.984;2023-07-20T06:28:18;1.40;;;1.30;;
18378;SDS011;27025;51.986;5.984;2023-07-20T06:30:44;2.37;;;1.10;;
18378;SDS011;27025;51.986;5.984;2023-07-20T06:33:10;2.30;;;1.30;;
18378;SDS011;27025;51.986;5.984;2023-07-20T06:35:36;1.87;;;1.30;;
18378;SDS011;27025;51.986;5.984;2023-07-20T06:38:02;2.03;;;1.40;;
18378;SDS011;27025;51.986;5.984;2023-07-20T06:40:29;2.20;;;1.30;;
18378;SDS011;27025;51.986;5.984;2023-07-20T06:42:55;1.67;;;1.20;;
18378;SDS011;27025;51.986;5.984;2023-07-20T06:45:21;1.33;;;1.13;;
18378;SDS011;27025;51.986;5.984;2023-07-20T06:47:47;2.10;;;1.27;;
18378;SDS011;27025;51.986;5.984;2023-07-20T06:50:13;1.83;;;1.20;;
18378;SDS011;27025;51.986;5.984;2023-07-20T06:52:39;3.13;;;1.10;;
18378;SDS011;27025;51.986;5.984;2023-07-20T06:55:05;1.60;;;1.33;;
18378;SDS011;27025;51.986;5.984;2023-07-20T06:57:32;1.43;;;1.33;;
18378;SDS011;27025;51.986;5.984;2023-07-20T06:59:58;1.20;;;1.10;;
18378;SDS011;27025;51.986;5.984;2023-07-20T07:02:24;1.13;;;1.03;;
18378;SDS011;27025;51.986;5.984;2023-07-20T07:04:50;1.50;;;1.00;;
18378;SDS011;27025;51.986;5.984;2023-07-20T07:07:16;1.63;;;1.00;;
18378;SDS011;27025;51.986;5.984;2023-07-20T07:09:42;4.87;;;1.20;;
18378;SDS011;27025;51.986;5.984;2023-07-20T07:12:08;1.60;;;1.00;;
18378;SDS011;27025;51.986;5.984;2023-07-20T07:14:34;1.20;;;1.10;;
18378;SDS011;27025;51.986;5.984;2023-07-20T07:17:00;1.60;;;1.17;;
18378;SDS011;27025;51.986;5.984;2023-07-20T07:19:26;1.07;;;0.80;;
18378;SDS011;27025;51.986;5.984;2023-07-20T07:21:52;2.40;;;1.20;;
18378;SDS011;27025;51.986;5.984;2023-07-20T07:24:18;2.30;;;1.17;;
18378;SDS011;27025;51.986;5.984;2023-07-20T07:26:44;3.17;;;1.23;;
18378;SDS011;27025;51.986;5.984;2023-07-20T07:29:10;1.37;;;1.03;;
18378;SDS011;27025;51.986;5.984;2023-07-20T07:31:37;2.00;;;1.20;;
18378;SDS011;27025;51.986;5.984;2023-07-20T07:34:03;1.40;;;0.90;;
18378;SDS011;27025;51.986;5.984;2023-07-20T07:36:30;1.00;;;0.90;;
18378;SDS011;27025;51.986;5.984;2023-07-20T07:38:56;2.43;;;1.10;;
18378;SDS011;27025;51.986;5.984;2023-07-20T07:41:22;2.00;;;1.00;;
18378;SDS011;27025;51.986;5.984;2023-07-20T07:43:48;2.10;;;1.07;;
18378;SDS011;27025;51.986;5.984;2023-07-20T07:46:14;2.80;;;1.00;;
18378;SDS011;27025;51.986;5.984;2023-07-20T07:48:40;2.00;;;1.00;;
18378;SDS011;27025;51.986;5.984;2023-07-20T07:51:06;1.10;;;0.90;;
18378;SDS011;27025;51.986;5.984;2023-07-20T07:53:32;1.90;;;1.00;;
18378;SDS011;27025;51.986;5.984;2023-07-20T07:56:00;1.77;;;1.10;;
18378;SDS011;27025;51.986;5.984;2023-07-20T07:58:28;1.57;;;0.90;;
18378;SDS011;27025;51.986;5.984;2023-07-20T08:00:54;3.73;;;1.13;;
18378;SDS011;27025;51.986;5.984;2023-07-20T08:03:20;0.87;;;0.80;;
18378;SDS011;27025;51.986;5.984;2023-07-20T08:05:46;1.00;;;0.90;;
18378;SDS011;27025;51.986;5.984;2023-07-20T08:08:12;2.27;;;1.30;;
18378;SDS011;27025;51.986;5.984;2023-07-20T08:10:39;1.00;;;0.90;;
18378;SDS011;27025;51.986;5.984;2023-07-20T08:13:05;1.67;;;0.80;;
18378;SDS011;27025;51.986;5.984;2023-07-20T08:15:31;1.20;;;1.00;;
18378;SDS011;27025;51.986;5.984;2023-07-20T08:17:57;2.60;;;1.00;;
18378;SDS011;27025;51.986;5.984;2023-07-20T08:20:23;1.23;;;0.90;;
18378;SDS011;27025;51.986;5.984;2023-07-20T08:22:52;1.00;;;0.80;;
18378;SDS011;27025;51.986;5.984;2023-07-20T08:25:18;1.60;;;1.00;;
18378;SDS011;27025;51.986;5.984;2023-07-20T08:27:44;4.50;;;1.00;;
18378;SDS011;27025;51.986;5.984;2023-07-20T08:30:12;2.17;;;0.80;;
18378;SDS011;27025;51.986;5.984;2023-07-20T08:32:38;0.80;;;0.80;;
18378;SDS011;27025;51.986;5.984;2023-07-20T08:35:04;0.90;;;0.80;;
18378;SDS011;27025;51.986;5.984;2023-07-20T08:37:31;0.90;;;0.70;;
18378;SDS011;27025;51.986;5.984;2023-07-20T08:39:57;0.80;;;0.70;;
18378;SDS011;27025;51.986;5.984;2023-07-20T08:42:23;2.47;;;1.03;;
18378;SDS011;27025;51.986;5.984;2023-07-20T08:44:49;2.70;;;0.90;;
18378;SDS011;27025;51.986;5.984;2023-07-20T08:47:17;1.43;;;0.83;;
18378;SDS011;27025;51.986;5.984;2023-07-20T08:49:43;0.80;;;0.80;;
18378;SDS011;27025;51.986;5.984;2023-07-20T08:52:09;1.23;;;0.80;;
18378;SDS011;27025;51.986;5.984;2023-07-20T08:54:36;1.53;;;0.80;;
18378;SDS011;27025;51.986;5.984;2023-07-20T08:57:02;1.30;;;1.00;;
18378;SDS011;27025;51.986;5.984;2023-07-20T08:59:29;0.93;;;0.80;;
18378;SDS011;27025;51.986;5.984;2023-07-20T09:01:58;0.98;;;0.70;;
18378;SDS011;27025;51.986;5.984;2023-07-20T09:04:25;0.73;;;0.70;;
18378;SDS011;27025;51.986;5.984;2023-07-20T09:06:51;1.23;;;0.70;;
18378;SDS011;27025;51.986;5.984;2023-07-20T09:09:17;2.85;;;0.90;;
18378;SDS011;27025;51.986;5.984;2023-07-20T09:11:44;2.25;;;1.20;;
18378;SDS011;27025;51.986;5.984;2023-07-20T09:14:12;1.23;;;1.00;;
18378;SDS011;27025;51.986;5.984;2023-07-20T09:16:59;1.20;;;1.00;;
18378;SDS011;27025;51.986;5.984;2023-07-20T09:19:24;1.95;;;0.90;;
18378;SDS011;27025;51.986;5.984;2023-07-20T09:21:51;1.00;;;0.90;;
18378;SDS011;27025;51.986;5.984;2023-07-20T09:24:17;0.98;;;0.90;;
18378;SDS011;27025;51.986;5.984;2023-07-20T09:26:44;3.15;;;1.05;;
18378;SDS011;27025;51.986;5.984;2023-07-20T09:29:10;1.63;;;1.00;;
18378;SDS011;27025;51.986;5.984;2023-07-20T09:31:37;3.38;;;1.00;;
18378;SDS011;27025;51.986;5.984;2023-07-20T09:34:07;1.08;;;0.90;;
18378;SDS011;27025;51.986;5.984;2023-07-20T09:36:34;1.75;;;0.82;;
18378;SDS011;27025;51.986;5.984;2023-07-20T09:39:01;1.35;;;0.90;;
18378;SDS011;27025;51.986;5.984;2023-07-20T09:41:28;3.65;;;1.10;;
18378;SDS011;27025;51.986;5.984;2023-07-20T09:43:54;1.33;;;0.80;;
18378;SDS011;27025;51.986;5.984;2023-07-20T09:46:20;2.05;;;0.93;;
18378;SDS011;27025;51.986;5.984;2023-07-20T09:48:53;1.02;;;0.93;;
18378;SDS011;27025;51.986;5.984;2023-07-20T09:51:22;2.80;;;1.00;;
18378;SDS011;27025;51.986;5.984;2023-07-20T09:53:49;0.85;;;0.80;;
18378;SDS011;27025;51.986;5.984;2023-07-20T09:56:20;2.17;;;1.02;;
18378;SDS011;27025;51.986;5.984;2023-07-20T09:58:50;1.75;;;1.00;;
18378;SDS011;27025;51.986;5.984;2023-07-20T10:01:17;1.23;;;0.80;;
18378;SDS011;27025;51.986;5.984;2023-07-20T10:03:46;4.65;;;1.00;;
18378;SDS011;27025;51.986;5.984;2023-07-20T10:06:14;1.67;;;0.95;;
18378;SDS011;27025;51.986;5.984;2023-07-20T10:08:41;2.10;;;1.00;;
18378;SDS011;27025;51.986;5.984;2023-07-20T10:11:08;1.42;;;0.90;;
18378;SDS011;27025;51.986;5.984;2023-07-20T10:13:36;1.17;;;0.90;;
18378;SDS011;27025;51.986;5.984;2023-07-20T10:16:04;1.60;;;0.90;;
18378;SDS011;27025;51.986;5.984;2023-07-20T10:20:59;1.25;;;0.90;;
18378;SDS011;27025;51.986;5.984;2023-07-20T10:23:26;1.20;;;1.10;;
18378;SDS011;27025;51.986;5.984;2023-07-20T10:25:54;1.88;;;1.00;;
18378;SDS011;27025;51.986;5.984;2023-07-20T10:28:21;1.25;;;0.90;;
18378;SDS011;27025;51.986;5.984;2023-07-20T10:30:51;1.38;;;0.90;;
18378;SDS011;27025;51.986;5.984;2023-07-20T10:33:17;1.88;;;1.10;;
18378;SDS011;27025;51.986;5.984;2023-07-20T10:35:50;1.80;;;1.00;;
18378;SDS011;27025;51.986;5.984;2023-07-20T10:38:16;1.60;;;1.10;;
18378;SDS011;27025;51.986;5.984;2023-07-20T10:40:42;1.00;;;0.90;;
18378;SDS011;27025;51.986;5.984;2023-07-20T10:43:09;1.10;;;1.00;;
18378;SDS011;27025;51.986;5.984;2023-07-20T10:45:39;2.58;;;0.90;;
18378;SDS011;27025;51.986;5.984;2023-07-20T10:50:39;1.73;;;1.10;;
18378;SDS011;27025;51.986;5.984;2023-07-20T10:53:09;1.73;;;1.00;;
18378;SDS011;27025;51.986;5.984;2023-07-20T10:55:36;1.20;;;1.10;;
18378;SDS011;27025;51.986;5.984;2023-07-20T10:58:06;1.73;;;1.00;;
18378;SDS011;27025;51.986;5.984;2023-07-20T11:00:33;2.22;;;1.00;;
18378;SDS011;27025;51.986;5.984;2023-07-20T11:02:59;1.15;;;0.90;;
18378;SDS011;27025;51.986;5.984;2023-07-20T11:05:35;1.63;;;1.02;;
18378;SDS011;27025;51.986;5.984;2023-07-20T11:08:05;1.08;;;0.98;;
18378;SDS011;27025;51.986;5.984;2023-07-20T11:10:31;1.23;;;1.00;;
18378;SDS011;27025;51.986;5.984;2023-07-20T11:13:17;1.75;;;1.02;;
18378;SDS011;27025;51.986;5.984;2023-07-20T11:18:21;1.27;;;1.17;;
18378;SDS011;27025;51.986;5.984;2023-07-20T11:20:51;2.78;;;1.17;;
18378;SDS011;27025;51.986;5.984;2023-07-20T11:23:17;1.60;;;1.10;;
18378;SDS011;27025;51.986;5.984;2023-07-20T11:25:44;1.20;;;1.00;;
18378;SDS011;27025;51.986;5.984;2023-07-20T11:28:10;1.52;;;1.20;;
18378;SDS011;27025;51.986;5.984;2023-07-20T11:30:36;1.65;;;1.10;;
18378;SDS011;27025;51.986;5.984;2023-07-20T11:33:03;1.55;;;1.10;;
18378;SDS011;27025;51.986;5.984;2023-07-20T11:35:30;1.58;;;1.15;;
18378;SDS011;27025;51.986;5.984;2023-07-20T11:37:56;1.80;;;1.08;;
18378;SDS011;27025;51.986;5.984;2023-07-20T11:40:22;2.22;;;1.08;;
18378;SDS011;27025;51.986;5.984;2023-07-20T11:42:49;1.52;;;0.98;;
18378;SDS011;27025;51.986;5.984;2023-07-20T11:45:16;1.02;;;0.90;;
18378;SDS011;27025;51.986;5.984;2023-07-20T11:47:44;1.02;;;1.00;;
18378;SDS011;27025;51.986;5.984;2023-07-20T11:50:10;2.00;;;1.25;;
18378;SDS011;27025;51.986;5.984;2023-07-20T11:52:39;1.20;;;1.10;;
18378;SDS011;27025;51.986;5.984;2023-07-20T11:55:05;2.15;;;1.10;;
18378;SDS011;27025;51.986;5.984;2023-07-20T11:57:32;1.17;;;1.08;;
18378;SDS011;27025;51.986;5.984;2023-07-20T12:00:00;2.30;;;1.08;;
18378;SDS011;27025;51.986;5.984;2023-07-20T12:02:29;1.38;;;1.27;;
18378;SDS011;27025;51.986;5.984;2023-07-20T12:04:55;1.58;;;1.20;;
18378;SDS011;27025;51.986;5.984;2023-07-20T12:07:21;1.35;;;1.08;;
18378;SDS011;27025;51.986;5.984;2023-07-20T12:10:07;1.15;;;0.90;;
18378;SDS011;27025;51.986;5.984;2023-07-20T12:12:43;1.27;;;1.02;;
18378;SDS011;27025;51.986;5.984;2023-07-20T12:17:42;3.15;;;1.10;;
18378;SDS011;27025;51.986;5.984;2023-07-20T12:20:08;2.13;;;1.27;;
18378;SDS011;27025;51.986;5.984;2023-07-20T12:22:43;1.70;;;1.10;;
18378;SDS011;27025;51.986;5.984;2023-07-20T12:25:09;2.50;;;1.30;;
18378;SDS011;27025;51.986;5.984;2023-07-20T12:27:38;3.30;;;1.30;;
18378;SDS011;27025;51.986;5.984;2023-07-20T12:30:05;1.10;;;1.00;;
18378;SDS011;27025;51.986;5.984;2023-07-20T12:32:32;2.40;;;1.13;;
18378;SDS011;27025;51.986;5.984;2023-07-20T12:34:59;1.73;;;1.10;;
18378;SDS011;27025;51.986;5.984;2023-07-20T12:37:25;1.42;;;1.33;;
18378;SDS011;27025;51.986;5.984;2023-07-20T12:39:52;2.63;;;1.20;;
18378;SDS011;27025;51.986;5.984;2023-07-20T12:42:18;1.88;;;1.08;;
18378;SDS011;27025;51.986;5.984;2023-07-20T12:44:44;1.77;;;1.30;;
18378;SDS011;27025;51.986;5.984;2023-07-20T12:47:10;3.50;;;1.20;;
18378;SDS011;27025;51.986;5.984;2023-07-20T12:49:36;2.38;;;1.20;;
18378;SDS011;27025;51.986;5.984;2023-07-20T12:52:02;1.45;;;1.30;;
18378;SDS011;27025;51.986;5.984;2023-07-20T12:54:28;1.30;;;1.13;;
18378;SDS011;27025;51.986;5.984;2023-07-20T12:56:54;3.50;;;1.40;;
18378;SDS011;27025;51.986;5.984;2023-07-20T13:01:51;1.38;;;1.10;;
18378;SDS011;27025;51.986;5.984;2023-07-20T13:04:17;1.70;;;1.30;;
18378;SDS011;27025;51.986;5.984;2023-07-20T13:06:43;4.00;;;1.30;;
18378;SDS011;27025;51.986;5.984;2023-07-20T13:09:09;1.55;;;1.10;;
18378;SDS011;27025;51.986;5.984;2023-07-20T13:11:35;2.53;;;1.25;;
18378;SDS011;27025;51.986;5.984;2023-07-20T13:14:01;1.60;;;1.20;;
18378;SDS011;27025;51.986;5.984;2023-07-20T13:16:27;5.15;;;1.38;;
18378;SDS011;27025;51.986;5.984;2023-07-20T13:18:53;3.28;;;1.20;;
18378;SDS011;27025;51.986;5.984;2023-07-20T13:21:19;8.55;;;1.50;;
18378;SDS011;27025;51.986;5.984;2023-07-20T13:23:47;1.40;;;1.20;;
18378;SDS011;27025;51.986;5.984;2023-07-20T13:26:14;2.15;;;1.13;;
18378;SDS011;27025;51.986;5.984;2023-07-20T13:28:40;1.63;;;1.00;;
18378;SDS011;27025;51.986;5.984;2023-07-20T13:31:06;1.40;;;1.02;;
18378;SDS011;27025;51.986;5.984;2023-07-20T13:33:35;0.88;;;0.88;;
18378;SDS011;27025;51.986;5.984;2023-07-20T13:36:01;1.27;;;0.90;;
18378;SDS011;27025;51.986;5.984;2023-07-20T13:38:27;2.47;;;0.98;;
18378;SDS011;27025;51.986;5.984;2023-07-20T13:40:53;1.23;;;1.10;;
18378;SDS011;27025;51.986;5.984;2023-07-20T13:43:19;3.42;;;1.10;;
18378;SDS011;27025;51.986;5.984;2023-07-20T13:45:45;1.30;;;1.10;;
18378;SDS011;27025;51.986;5.984;2023-07-20T13:48:11;3.72;;;1.15;;
18378;SDS011;27025;51.986;5.984;2023-07-20T13:50:37;1.33;;;1.05;;
18378;SDS011;27025;51.986;5.984;2023-07-20T13:53:03;1.17;;;1.08;;
18378;SDS011;27025;51.986;5.984;2023-07-20T13:55:29;1.63;;;1.00;;
18378;SDS011;27025;51.986;5.984;2023-07-20T13:57:58;0.95;;;0.90;;
18378;SDS011;27025;51.986;5.984;2023-07-20T14:00:24;2.50;;;1.10;;
18378;SDS011;27025;51.986;5.984;2023-07-20T14:02:55;1.70;;;1.00;;
18378;SDS011;27025;51.986;5.984;2023-07-20T14:05:21;27.27;;;2.33;;
18378;SDS011;27025;51.986;5.984;2023-07-20T14:07:47;12.25;;;1.42;;
18378;SDS011;27025;51.986;5.984;2023-07-20T14:10:15;3.60;;;1.27;;
18378;SDS011;27025;51.986;5.984;2023-07-20T14:12:41;1.92;;;1.30;;
18378;SDS011;27025;51.986;5.984;2023-07-20T14:15:07;3.10;;;1.50;;
18378;SDS011;27025;51.986;5.984;2023-07-20T14:17:33;4.20;;;0.93;;
18378;SDS011;27025;51.986;5.984;2023-07-20T14:19:59;3.03;;;1.10;;
18378;SDS011;27025;51.986;5.984;2023-07-20T14:22:25;1.00;;;1.00;;
18378;SDS011;27025;51.986;5.984;2023-07-20T14:24:51;9.85;;;1.58;;
18378;SDS011;27025;51.986;5.984;2023-07-20T14:27:17;1.00;;;1.00;;
18378;SDS011;27025;51.986;5.984;2023-07-20T14:29:43;2.50;;;1.10;;
18378;SDS011;27025;51.986;5.984;2023-07-20T14:32:09;3.17;;;1.17;;
18378;SDS011;27025;51.986;5.984;2023-07-20T14:34:36;0.95;;;0.95;;
18378;SDS011;27025;51.986;5.984;2023-07-20T14:37:02;1.63;;;1.20;;
18378;SDS011;27025;51.986;5.984;2023-07-20T14:39:29;2.15;;;1.00;;
18378;SDS011;27025;51.986;5.984;2023-07-20T14:41:55;1.85;;;1.13;;
18378;SDS011;27025;51.986;5.984;2023-07-20T14:44:21;1.38;;;1.10;;
18378;SDS011;27025;51.986;5.984;2023-07-20T14:46:47;1.40;;;0.90;;
18378;SDS011;27025;51.986;5.984;2023-07-20T14:49:13;1.45;;;1.35;;
18378;SDS011;27025;51.986;5.984;2023-07-20T14:51:42;4.38;;;1.27;;
18378;SDS011;27025;51.986;5.984;2023-07-20T14:54:11;1.40;;;1.30;;
18378;SDS011;27025;51.986;5.984;2023-07-20T14:56:37;1.77;;;1.10;;
18378;SDS011;27025;51.986;5.984;2023-07-20T14:59:04;1.50;;;1.20;;
18378;SDS011;27025;51.986;5.984;2023-07-20T15:01:31;1.40;;;1.00;;
18378;SDS011;27025;51.986;5.984;2023-07-20T15:03:57;1.20;;;1.10;;
18378;SDS011;27025;51.986;5.984;2023-07-20T15:06:26;2.45;;;1.00;;
18378;SDS011;27025;51.986;5.984;2023-07-20T15:08:55;1.40;;;1.15;;
18378;SDS011;27025;51.986;5.984;2023-07-20T15:11:21;1.27;;;1.00;;